Airfield :
LOGIN :

Register | Disclaimer

   EN    FR    IT 

 










Legend :    VFR   Marginal VFR   IFR   Intensive IFR   Very Intensive IFR
Visi :
Ceiling :
>= 8 km
>= 3000ft
5 to 8 km
1000 to 3000 ft
1500m to 5 km
500 to 1000 ft
800 to 1500m
200 to 500 ft
< 800m
< 200 ft
Symbols :   Thunderstorms  Fog  Heavy snow  Heavy precipitations  Wind > 20 kt
SIGMETs :     Misc.  Thunderstorms  Icing  Turbulence  Mountain Waves  Volcanic Ashes






- Airport Elevation : 458 ft


LFSI - St-Dizier

CURRENT METAR :
  • 301530Z AUTO 22006KT 9999 OVC034 14/10 Q1025

EXPIRED METARs :
  • 301500Z AUTO 22006KT 190V250 9999 OVC034 15/10 Q1025
  • 301430Z AUTO 23008KT 9999 FEW027 OVC035 15/10 Q1025
  • 301400Z AUTO 22008KT 9999 OVC036 15/10 Q1025
  • 301330Z AUTO 22009KT 9999 OVC037 15/10 Q1025
  • 301300Z AUTO 22009KT 9999 OVC038 15/10 Q1025

TAF TAF LFSI
Valid from the 30 at 15:00 until the 31 at 15:00 UTC


301400Z 3015/3115 23010KT 9999 BKN035
BECMG 3019/3021 3000 BR
PROB40
TEMPO 3023/3110 0500 FG VV///



MET'MAP, your aeronautical weather chart ! - Copyright ORBIFLY December 2007 - Disclaimer

ORBIFLY MET'MAP TEAM :

Programming & Development : Alexandra Zaïnal
Concept & original design : Baudouin d'Aumeries
Assistance for programming : Marc-Olivier Méhu
Technical & hardware support : Manuel Goepfert

Contact : metmap@orbifly.com




SOURCES & CREDITS :

   NOAA